sensor_id;sensor_type;location;lat;lon;timestamp;pressure;altitude;pressure_sealevel;temperature;humidity
44144;BME280;71749;51.920;4.492;2024-03-02T00:02:09;66932.13;;;9.69;100.00
44144;BME280;71749;51.920;4.492;2024-03-02T00:04:54;66951.47;;;9.84;100.00
44144;BME280;71749;51.920;4.492;2024-03-02T00:08:05;66922.09;;;9.60;100.00
44144;BME280;71749;51.920;4.492;2024-03-02T00:10:51;66932.50;;;9.67;100.00
44144;BME280;71749;51.920;4.492;2024-03-02T00:13:37;66939.19;;;9.73;100.00
44144;BME280;71749;51.920;4.492;2024-03-02T00:16:30;66935.47;;;9.72;100.00
44144;BME280;71749;51.920;4.492;2024-03-02T00:19:16;66934.75;;;9.69;100.00
44144;BME280;71749;51.920;4.492;2024-03-02T00:22:01;66956.47;;;9.89;100.00
44144;BME280;71749;51.920;4.492;2024-03-02T00:24:48;66890.72;;;9.29;100.00
44144;BME280;71749;51.920;4.492;2024-03-02T00:27:34;66945.72;;;9.77;100.00
44144;BME280;71749;51.920;4.492;2024-03-02T00:33:30;66939.38;;;9.76;100.00
44144;BME280;71749;51.920;4.492;2024-03-02T00:36:22;66897.00;;;9.37;100.00
44144;BME280;71749;51.920;4.492;2024-03-02T00:39:12;66913.38;;;9.48;100.00
44144;BME280;71749;51.920;4.492;2024-03-02T00:42:00;66883.47;;;9.23;100.00
44144;BME280;71749;51.920;4.492;2024-03-02T00:44:45;66905.97;;;9.38;100.00
44144;BME280;71749;51.920;4.492;2024-03-02T00:47:38;66930.13;;;9.63;100.00
44144;BME280;71749;51.920;4.492;2024-03-02T00:50:24;66930.84;;;9.66;100.00
44144;BME280;71749;51.920;4.492;2024-03-02T00:53:16;66943.13;;;9.77;100.00
44144;BME280;71749;51.920;4.492;2024-03-02T00:56:03;66939.75;;;9.74;100.00
44144;BME280;71749;51.920;4.492;2024-03-02T00:58:50;66930.84;;;9.66;100.00
44144;BME280;71749;51.920;4.492;2024-03-02T01:01:35;66930.47;;;9.68;100.00
44144;BME280;71749;51.920;4.492;2024-03-02T01:04:20;66896.31;;;9.34;100.00
44144;BME280;71749;51.920;4.492;2024-03-02T01:07:06;66832.22;;;8.76;100.00
44144;BME280;71749;51.920;4.492;2024-03-02T01:09:52;66888.13;;;9.29;100.00
44144;BME280;71749;51.920;4.492;2024-03-02T01:12:37;66913.75;;;9.53;100.00
44144;BME280;71749;51.920;4.492;2024-03-02T01:15:22;66920.44;;;9.59;100.00
44144;BME280;71749;51.920;4.492;2024-03-02T01:18:08;66929.91;;;9.67;100.00
44144;BME280;71749;51.920;4.492;2024-03-02T01:20:54;66903.88;;;9.46;100.00
44144;BME280;71749;51.920;4.492;2024-03-02T01:23:40;66910.38;;;9.50;100.00
44144;BME280;71749;51.920;4.492;2024-03-02T01:26:26;66902.75;;;9.45;100.00
44144;BME280;71749;51.920;4.492;2024-03-02T01:29:11;66928.44;;;9.61;100.00
44144;BME280;71749;51.920;4.492;2024-03-02T01:31:57;66893.13;;;9.34;100.00
44144;BME280;71749;51.920;4.492;2024-03-02T01:34:42;66883.66;;;9.25;100.00
44144;BME280;71749;51.920;4.492;2024-03-02T01:37:28;66895.00;;;9.31;100.00
44144;BME280;71749;51.920;4.492;2024-03-02T01:40:14;66850.22;;;8.95;100.00
44144;BME280;71749;51.920;4.492;2024-03-02T01:42:59;66861.00;;;9.00;100.00
44144;BME280;71749;51.920;4.492;2024-03-02T01:45:45;66849.50;;;8.92;100.00
44144;BME280;71749;51.920;4.492;2024-03-02T01:48:30;66822.03;;;8.65;100.00
44144;BME280;71749;51.920;4.492;2024-03-02T01:51:16;66845.78;;;8.91;100.00
44144;BME280;71749;51.920;4.492;2024-03-02T01:54:01;66854.50;;;8.96;100.00
44144;BME280;71749;51.920;4.492;2024-03-02T01:56:46;66848.56;;;8.93;100.00
44144;BME280;71749;51.920;4.492;2024-03-02T01:59:32;66776.16;;;8.28;100.00
44144;BME280;71749;51.920;4.492;2024-03-02T02:02:18;66800.66;;;8.50;100.00
44144;BME280;71749;51.920;4.492;2024-03-02T02:05:03;66773.75;;;8.23;100.00
44144;BME280;71749;51.920;4.492;2024-03-02T02:07:49;66817.91;;;8.66;100.00
44144;BME280;71749;51.920;4.492;2024-03-02T02:10:34;66844.66;;;8.90;100.00
44144;BME280;71749;51.920;4.492;2024-03-02T02:13:20;66909.84;;;9.49;100.00
44144;BME280;71749;51.920;4.492;2024-03-02T02:16:06;66911.88;;;9.49;100.00
44144;BME280;71749;51.920;4.492;2024-03-02T02:18:52;66839.09;;;8.85;100.00
44144;BME280;71749;51.920;4.492;2024-03-02T02:21:37;66863.44;;;9.05;100.00
44144;BME280;71749;51.920;4.492;2024-03-02T02:24:22;66854.69;;;8.99;100.00
44144;BME280;71749;51.920;4.492;2024-03-02T02:27:08;66864.38;;;9.03;100.00
44144;BME280;71749;51.920;4.492;2024-03-02T02:29:53;66845.03;;;8.88;100.00
44144;BME280;71749;51.920;4.492;2024-03-02T02:32:41;66787.47;;;8.40;100.00
44144;BME280;71749;51.920;4.492;2024-03-02T02:35:26;66850.22;;;8.95;100.00
44144;BME280;71749;51.920;4.492;2024-03-02T02:38:12;66829.44;;;8.74;100.00
44144;BME280;71749;51.920;4.492;2024-03-02T02:40:57;66827.22;;;8.72;100.00
44144;BME280;71749;51.920;4.492;2024-03-02T02:43:43;66822.22;;;8.67;100.00
44144;BME280;71749;51.920;4.492;2024-03-02T02:46:29;66829.06;;;8.76;100.00
44144;BME280;71749;51.920;4.492;2024-03-02T02:49:15;66829.06;;;8.76;100.00
44144;BME280;71749;51.920;4.492;2024-03-02T02:52:00;66852.84;;;8.95;100.00
44144;BME280;71749;51.920;4.492;2024-03-02T02:54:46;66799.75;;;8.44;100.00
44144;BME280;71749;51.920;4.492;2024-03-02T02:57:33;66845.78;;;8.91;100.00
44144;BME280;71749;51.920;4.492;2024-03-02T03:00:22;66819.97;;;8.65;100.00
44144;BME280;71749;51.920;4.492;2024-03-02T03:03:08;66828.72;;;8.71;100.00
44144;BME280;71749;51.920;4.492;2024-03-02T03:05:53;66847.25;;;8.90;100.00
44144;BME280;71749;51.920;4.492;2024-03-02T03:08:39;66840.59;;;8.84;100.00
44144;BME280;71749;51.920;4.492;2024-03-02T03:11:24;66870.28;;;9.13;100.00
44144;BME280;71749;51.920;4.492;2024-03-02T03:14:11;66845.78;;;8.91;100.00
44144;BME280;71749;51.920;4.492;2024-03-02T03:16:57;66842.81;;;8.86;100.00
44144;BME280;71749;51.920;4.492;2024-03-02T03:19:42;66887.94;;;9.27;100.00
44144;BME280;71749;51.920;4.492;2024-03-02T03:22:27;66892.22;;;9.28;100.00
44144;BME280;71749;51.920;4.492;2024-03-02T03:25:13;66924.53;;;9.58;100.00
44144;BME280;71749;51.920;4.492;2024-03-02T03:27:58;66893.69;;;9.34;100.00
44144;BME280;71749;51.920;4.492;2024-03-02T03:30:44;66898.50;;;9.36;100.00
44144;BME280;71749;51.920;4.492;2024-03-02T03:33:29;66921.53;;;9.60;100.00
44144;BME280;71749;51.920;4.492;2024-03-02T03:36:15;66917.47;;;9.54;100.00
44144;BME280;71749;51.920;4.492;2024-03-02T03:39:00;66923.75;;;9.62;100.00
44144;BME280;71749;51.920;4.492;2024-03-02T03:41:47;66926.94;;;9.62;100.00
44144;BME280;71749;51.920;4.492;2024-03-02T03:44:33;66894.06;;;9.32;100.00
44144;BME280;71749;51.920;4.492;2024-03-02T03:47:18;66872.13;;;9.17;100.00
44144;BME280;71749;51.920;4.492;2024-03-02T03:50:06;66890.72;;;9.29;100.00
44144;BME280;71749;51.920;4.492;2024-03-02T03:52:52;66913.75;;;9.53;100.00
44144;BME280;71749;51.920;4.492;2024-03-02T03:55:38;66830.38;;;8.72;100.00
44144;BME280;71749;51.920;4.492;2024-03-02T03:58:23;66841.88;;;8.87;100.00
44144;BME280;71749;51.920;4.492;2024-03-02T04:01:09;66900.56;;;9.36;100.00
44144;BME280;71749;51.920;4.492;2024-03-02T04:03:54;66861.38;;;9.05;100.00
44144;BME280;71749;51.920;4.492;2024-03-02T04:06:40;66819.81;;;8.63;100.00
44144;BME280;71749;51.920;4.492;2024-03-02T04:09:25;66843.75;;;8.84;100.00
44144;BME280;71749;51.920;4.492;2024-03-02T04:12:11;66821.47;;;8.64;100.00
44144;BME280;71749;51.920;4.492;2024-03-02T04:14:58;66836.50;;;8.78;100.00
44144;BME280;71749;51.920;4.492;2024-03-02T04:17:43;66774.47;;;8.26;100.00
44144;BME280;71749;51.920;4.492;2024-03-02T04:20:29;66763.34;;;8.16;100.00
44144;BME280;71749;51.920;4.492;2024-03-02T04:23:15;66800.66;;;8.50;100.00
44144;BME280;71749;51.920;4.492;2024-03-02T04:26:00;66825.72;;;8.73;100.00
44144;BME280;71749;51.920;4.492;2024-03-02T04:28:46;66842.03;;;8.90;100.00
44144;BME280;71749;51.920;4.492;2024-03-02T04:31:32;66820.53;;;8.66;100.00
44144;BME280;71749;51.920;4.492;2024-03-02T04:34:17;66794.38;;;8.42;100.00
44144;BME280;71749;51.920;4.492;2024-03-02T04:37:03;66819.59;;;8.67;100.00
44144;BME280;71749;51.920;4.492;2024-03-02T04:39:49;66821.28;;;8.69;100.00
44144;BME280;71749;51.920;4.492;2024-03-02T04:42:35;66834.28;;;8.76;100.00
44144;BME280;71749;51.920;4.492;2024-03-02T04:45:20;66816.81;;;8.65;100.00
44144;BME280;71749;51.920;4.492;2024-03-02T04:48:06;66812.19;;;8.58;100.00
44144;BME280;71749;51.920;4.492;2024-03-02T04:50:51;66800.88;;;8.45;100.00
44144;BME280;71749;51.920;4.492;2024-03-02T04:53:37;66775.41;;;8.25;100.00
44144;BME280;71749;51.920;4.492;2024-03-02T04:56:23;66755.00;;;8.08;100.00
44144;BME280;71749;51.920;4.492;2024-03-02T04:59:18;66797.16;;;8.44;100.00
44144;BME280;71749;51.920;4.492;2024-03-02T05:02:04;66744.03;;;8.01;100.00
44144;BME280;71749;51.920;4.492;2024-03-02T05:04:49;66750.19;;;7.99;100.00
44144;BME280;71749;51.920;4.492;2024-03-02T05:07:36;66762.63;;;8.13;100.00
44144;BME280;71749;51.920;4.492;2024-03-02T05:10:22;66758.88;;;8.12;100.00
44144;BME280;71749;51.920;4.492;2024-03-02T05:13:07;66744.63;;;7.94;100.00
44144;BME280;71749;51.920;4.492;2024-03-02T05:15:53;66726.44;;;7.80;100.00
44144;BME280;71749;51.920;4.492;2024-03-02T05:18:38;66720.72;;;7.72;100.00
44144;BME280;71749;51.920;4.492;2024-03-02T05:21:24;66766.31;;;8.21;100.00
44144;BME280;71749;51.920;4.492;2024-03-02T05:24:10;66746.66;;;8.01;100.00
44144;BME280;71749;51.920;4.492;2024-03-02T05:26:55;66749.63;;;7.99;100.00
44144;BME280;71749;51.920;4.492;2024-03-02T05:29:41;66757.59;;;8.08;100.00
44144;BME280;71749;51.920;4.492;2024-03-02T05:32:27;66748.13;;;8.00;100.00
44144;BME280;71749;51.920;4.492;2024-03-02T05:35:13;66720.88;;;7.75;100.00
44144;BME280;71749;51.920;4.492;2024-03-02T05:38:00;66742.91;;;8.00;100.00
44144;BME280;71749;51.920;4.492;2024-03-02T05:40:46;66760.00;;;8.13;100.00
44144;BME280;71749;51.920;4.492;2024-03-02T05:43:31;66790.06;;;8.40;100.00
44144;BME280;71749;51.920;4.492;2024-03-02T05:46:17;66814.59;;;8.63;100.00
44144;BME280;71749;51.920;4.492;2024-03-02T05:49:02;66783.03;;;8.29;100.00
44144;BME280;71749;51.920;4.492;2024-03-02T05:51:48;66775.03;;;8.27;100.00
44144;BME280;71749;51.920;4.492;2024-03-02T05:54:34;66762.59;;;8.20;100.00
44144;BME280;71749;51.920;4.492;2024-03-02T05:57:20;66785.63;;;8.36;100.00
44144;BME280;71749;51.920;4.492;2024-03-02T06:00:37;66820.94;;;8.64;100.00
44144;BME280;71749;51.920;4.492;2024-03-02T06:03:22;66810.13;;;8.58;100.00
44144;BME280;71749;51.920;4.492;2024-03-02T06:06:08;66805.50;;;8.52;100.00
44144;BME280;71749;51.920;4.492;2024-03-02T06:08:54;66790.06;;;8.40;100.00
44144;BME280;71749;51.920;4.492;2024-03-02T06:11:42;66828.88;;;8.73;100.00
44144;BME280;71749;51.920;4.492;2024-03-02T06:14:27;66829.06;;;8.76;100.00
44144;BME280;71749;51.920;4.492;2024-03-02T06:17:13;66823.28;;;8.75;100.00
44144;BME280;71749;51.920;4.492;2024-03-02T06:19:58;66770.41;;;8.20;100.00
44144;BME280;71749;51.920;4.492;2024-03-02T06:22:44;66791.19;;;8.41;100.00
44144;BME280;71749;51.920;4.492;2024-03-02T06:25:29;66717.53;;;7.72;100.00
44144;BME280;71749;51.920;4.492;2024-03-02T06:28:17;66748.88;;;8.03;100.00
44144;BME280;71749;51.920;4.492;2024-03-02T06:31:05;66743.31;;;7.98;100.00
44144;BME280;71749;51.920;4.492;2024-03-02T06:33:51;66776.72;;;8.28;100.00
44144;BME280;71749;51.920;4.492;2024-03-02T06:36:38;66735.53;;;7.91;100.00
44144;BME280;71749;51.920;4.492;2024-03-02T06:39:24;66753.69;;;8.05;100.00
44144;BME280;71749;51.920;4.492;2024-03-02T06:42:11;66755.38;;;8.06;100.00
44144;BME280;71749;51.920;4.492;2024-03-02T06:44:57;66729.78;;;7.83;100.00
44144;BME280;71749;51.920;4.492;2024-03-02T06:47:42;66712.69;;;7.70;100.00
44144;BME280;71749;51.920;4.492;2024-03-02T06:50:28;66750.53;;;8.04;100.00
44144;BME280;71749;51.920;4.492;2024-03-02T06:53:14;66710.31;;;7.65;100.00
44144;BME280;71749;51.920;4.492;2024-03-02T06:56:03;66767.06;;;8.17;100.00
44144;BME280;71749;51.920;4.492;2024-03-02T06:58:49;66758.34;;;8.11;100.00
44144;BME280;71749;51.920;4.492;2024-03-02T07:01:34;66739.63;;;7.90;100.00
44144;BME280;71749;51.920;4.492;2024-03-02T07:04:20;66742.19;;;7.97;100.00
44144;BME280;71749;51.920;4.492;2024-03-02T07:07:05;66794.53;;;8.44;100.00
44144;BME280;71749;51.920;4.492;2024-03-02T07:09:51;66751.66;;;8.05;100.00
44144;BME280;71749;51.920;4.492;2024-03-02T07:12:36;66738.13;;;7.91;100.00
44144;BME280;71749;51.920;4.492;2024-03-02T07:15:22;66741.09;;;7.96;100.00
44144;BME280;71749;51.920;4.492;2024-03-02T07:18:13;66784.34;;;8.33;100.00
44144;BME280;71749;51.920;4.492;2024-03-02T07:20:59;66788.63;;;8.34;100.00
44144;BME280;71749;51.920;4.492;2024-03-02T07:23:46;66777.09;;;8.26;100.00
44144;BME280;71749;51.920;4.492;2024-03-02T07:26:34;66784.34;;;8.33;100.00
44144;BME280;71749;51.920;4.492;2024-03-02T07:29:22;66734.22;;;7.87;100.00
44144;BME280;71749;51.920;4.492;2024-03-02T07:32:10;66764.44;;;8.17;100.00
44144;BME280;71749;51.920;4.492;2024-03-02T07:34:55;66747.75;;;8.02;100.00
44144;BME280;71749;51.920;4.492;2024-03-02T07:37:41;66806.22;;;8.55;100.00
44144;BME280;71749;51.920;4.492;2024-03-02T07:40:27;66794.91;;;8.42;100.00
44144;BME280;71749;51.920;4.492;2024-03-02T07:43:13;66774.47;;;8.26;100.00
44144;BME280;71749;51.920;4.492;2024-03-02T07:45:58;66770.03;;;8.22;100.00
44144;BME280;71749;51.920;4.492;2024-03-02T07:48:43;66766.69;;;8.19;100.00
44144;BME280;71749;51.920;4.492;2024-03-02T07:51:29;66693.78;;;7.53;100.00
44144;BME280;71749;51.920;4.492;2024-03-02T07:54:14;66744.63;;;7.94;100.00
44144;BME280;71749;51.920;4.492;2024-03-02T07:57:01;66752.22;;;8.06;100.00
44144;BME280;71749;51.920;4.492;2024-03-02T07:59:47;66764.44;;;8.17;100.00
44144;BME280;71749;51.920;4.492;2024-03-02T08:02:32;66770.56;;;8.23;100.00
44144;BME280;71749;51.920;4.492;2024-03-02T08:05:18;66796.75;;;8.46;100.00
44144;BME280;71749;51.920;4.492;2024-03-02T08:08:06;66793.25;;;8.41;100.00
44144;BME280;71749;51.920;4.492;2024-03-02T08:10:54;66823.88;;;8.69;100.00
44144;BME280;71749;51.920;4.492;2024-03-02T08:13:42;66751.09;;;8.05;100.00
44144;BME280;71749;51.920;4.492;2024-03-02T08:16:27;66805.66;;;8.54;100.00
44144;BME280;71749;51.920;4.492;2024-03-02T08:19:13;66803.44;;;8.52;100.00
44144;BME280;71749;51.920;4.492;2024-03-02T08:22:04;66821.66;;;8.67;100.00
44144;BME280;71749;51.920;4.492;2024-03-02T08:24:50;66811.25;;;8.59;100.00
44144;BME280;71749;51.920;4.492;2024-03-02T08:27:36;66815.16;;;8.63;100.00
44144;BME280;71749;51.920;4.492;2024-03-02T08:30:21;66829.06;;;8.76;100.00
44144;BME280;71749;51.920;4.492;2024-03-02T08:33:11;66810.91;;;8.54;100.00
44144;BME280;71749;51.920;4.492;2024-03-02T08:35:56;66836.28;;;8.82;100.00
44144;BME280;71749;51.920;4.492;2024-03-02T08:46:42;66904.47;;;9.39;100.00
44144;BME280;71749;51.920;4.492;2024-03-02T08:49:32;67034.19;;;10.62;100.00
44144;BME280;71749;51.920;4.492;2024-03-02T09:00:30;67337.31;;;13.34;81.75
44144;BME280;71749;51.920;4.492;2024-03-02T09:03:16;67265.00;;;12.66;85.87
44144;BME280;71749;51.920;4.492;2024-03-02T09:33:02;67452.16;;;14.41;74.48
44144;BME280;71749;51.920;4.492;2024-03-02T09:46:33;67560.34;;;15.41;71.07
44144;BME280;71749;51.920;4.492;2024-03-02T09:49:34;67610.94;;;15.89;73.79
44144;BME280;71749;51.920;4.492;2024-03-02T09:52:23;67594.94;;;15.70;68.76
44144;BME280;71749;51.920;4.492;2024-03-02T09:55:09;67514.28;;;14.97;66.88
44144;BME280;71749;51.920;4.492;2024-03-02T10:08:49;67532.75;;;15.13;67.46
44144;BME280;71749;51.920;4.492;2024-03-02T10:11:36;67481.25;;;14.67;66.42
44144;BME280;71749;51.920;4.492;2024-03-02T10:14:28;67541.72;;;15.22;70.97
44144;BME280;71749;51.920;4.492;2024-03-02T10:17:14;67667.78;;;16.36;64.01
44144;BME280;71749;51.920;4.492;2024-03-02T10:20:21;67787.94;;;17.46;66.36
44144;BME280;71749;51.920;4.492;2024-03-02T10:23:13;67850.66;;;18.01;61.92
44144;BME280;71749;51.920;4.492;2024-03-02T10:25:59;67730.44;;;16.90;61.32
44144;BME280;71749;51.920;4.492;2024-03-02T10:28:48;67549.38;;;15.26;60.51
44144;BME280;71749;51.920;4.492;2024-03-02T10:31:49;67533.16;;;15.11;62.68
44144;BME280;71749;51.920;4.492;2024-03-02T10:34:39;67599.28;;;15.71;64.99
44144;BME280;71749;51.920;4.492;2024-03-02T10:37:25;67610.94;;;15.89;60.17
44144;BME280;71749;51.920;4.492;2024-03-02T10:40:12;67508.13;;;14.91;61.61
44144;BME280;71749;51.920;4.492;2024-03-02T10:43:13;67507.56;;;14.91;62.71
44144;BME280;71749;51.920;4.492;2024-03-02T10:45:58;67413.69;;;14.08;63.35
44144;BME280;71749;51.920;4.492;2024-03-02T10:48:47;67453.28;;;14.42;66.44
44144;BME280;71749;51.920;4.492;2024-03-02T10:51:48;67527.38;;;15.04;65.22
44144;BME280;71749;51.920;4.492;2024-03-02T10:54:34;67481.41;;;14.69;64.17
44144;BME280;71749;51.920;4.492;2024-03-02T10:57:24;67349.19;;;13.47;62.24
44144;BME280;71749;51.920;4.492;2024-03-02T11:00:12;67362.84;;;13.55;65.92
44144;BME280;71749;51.920;4.492;2024-03-02T11:03:06;67411.84;;;14.04;67.37
44144;BME280;71749;51.920;4.492;2024-03-02T11:05:54;67521.00;;;15.03;66.11
44144;BME280;71749;51.920;4.492;2024-03-02T11:08:41;67591.97;;;15.65;65.35
44144;BME280;71749;51.920;4.492;2024-03-02T11:11:30;67586.53;;;15.62;63.62
44144;BME280;71749;51.920;4.492;2024-03-02T11:14:20;67507.56;;;14.91;62.24
44144;BME280;71749;51.920;4.492;2024-03-02T11:17:07;67502.75;;;14.82;60.52
44144;BME280;71749;51.920;4.492;2024-03-02T11:19:53;67399.38;;;13.90;60.94
44144;BME280;71749;51.920;4.492;2024-03-02T11:22:39;67336.91;;;13.36;64.99
44144;BME280;71749;51.920;4.492;2024-03-02T11:25:26;67428.22;;;14.21;66.75
44144;BME280;71749;51.920;4.492;2024-03-02T11:28:12;67397.13;;;13.88;61.03
44144;BME280;71749;51.920;4.492;2024-03-02T11:30:58;67305.97;;;13.06;61.96
44144;BME280;71749;51.920;4.492;2024-03-02T11:33:44;67320.69;;;13.22;67.08
44144;BME280;71749;51.920;4.492;2024-03-02T11:36:29;67319.97;;;13.19;62.81
44144;BME280;71749;51.920;4.492;2024-03-02T11:39:14;67258.63;;;12.65;62.01
44144;BME280;71749;51.920;4.492;2024-03-02T11:42:00;67288.47;;;12.88;65.09
44144;BME280;71749;51.920;4.492;2024-03-02T11:44:49;67273.72;;;12.79;63.74
44144;BME280;71749;51.920;4.492;2024-03-02T11:47:36;67291.44;;;12.93;65.71
44144;BME280;71749;51.920;4.492;2024-03-02T11:50:29;67335.78;;;13.35;66.03
44144;BME280;71749;51.920;4.492;2024-03-02T11:53:15;67338.03;;;13.37;66.01
44144;BME280;71749;51.920;4.492;2024-03-02T11:56:02;67328.19;;;13.24;62.07
44144;BME280;71749;51.920;4.492;2024-03-02T11:58:48;67292.72;;;12.96;63.76
44144;BME280;71749;51.920;4.492;2024-03-02T12:01:37;67268.69;;;12.75;62.82
44144;BME280;71749;51.920;4.492;2024-03-02T12:04:23;67240.03;;;12.46;64.87
44144;BME280;71749;51.920;4.492;2024-03-02T12:07:08;67184.19;;;11.96;66.65
44144;BME280;71749;51.920;4.492;2024-03-02T12:10:01;67213.22;;;12.22;66.55
44144;BME280;71749;51.920;4.492;2024-03-02T12:12:47;67221.59;;;12.30;66.63
44144;BME280;71749;51.920;4.492;2024-03-02T12:15:35;67199.97;;;12.12;67.44
44144;BME280;71749;51.920;4.492;2024-03-02T12:18:22;67224.22;;;12.30;67.35
44144;BME280;71749;51.920;4.492;2024-03-02T12:21:08;67202.22;;;12.14;69.68
44144;BME280;71749;51.920;4.492;2024-03-02T12:23:53;67203.34;;;12.15;68.80
44144;BME280;71749;51.920;4.492;2024-03-02T12:26:39;67202.78;;;12.15;67.81
44144;BME280;71749;51.920;4.492;2024-03-02T12:29:25;67240.44;;;12.44;66.76
44144;BME280;71749;51.920;4.492;2024-03-02T12:32:11;67248.03;;;12.56;67.07
44144;BME280;71749;51.920;4.492;2024-03-02T12:34:56;67221.44;;;12.27;67.41
44144;BME280;71749;51.920;4.492;2024-03-02T12:37:46;67249.16;;;12.57;67.81
44144;BME280;71749;51.920;4.492;2024-03-02T12:40:31;67239.63;;;12.48;67.94
44144;BME280;71749;51.920;4.492;2024-03-02T12:43:17;67284.91;;;12.89;65.74
44144;BME280;71749;51.920;4.492;2024-03-02T12:46:03;67248.22;;;12.51;67.34
44144;BME280;71749;51.920;4.492;2024-03-02T12:48:48;67281.38;;;12.84;66.40
44144;BME280;71749;51.920;4.492;2024-03-02T12:51:34;67262.75;;;12.64;66.18
44144;BME280;71749;51.920;4.492;2024-03-02T12:54:22;67237.94;;;12.47;66.51
44144;BME280;71749;51.920;4.492;2024-03-02T12:57:08;67250.09;;;12.55;67.61
44144;BME280;71749;51.920;4.492;2024-03-02T12:59:58;67310.63;;;13.13;68.27
44144;BME280;71749;51.920;4.492;2024-03-02T13:02:45;67348.63;;;13.47;67.61
44144;BME280;71749;51.920;4.492;2024-03-02T13:05:30;67292.16;;;12.96;65.21
44144;BME280;71749;51.920;4.492;2024-03-02T13:08:17;67280.44;;;12.85;67.83
44144;BME280;71749;51.920;4.492;2024-03-02T13:11:03;67320.13;;;13.21;64.68
44144;BME280;71749;51.920;4.492;2024-03-02T13:13:48;67277.63;;;12.83;66.39
44144;BME280;71749;51.920;4.492;2024-03-02T13:16:44;67306.84;;;13.12;65.16
44144;BME280;71749;51.920;4.492;2024-03-02T13:19:32;67286.25;;;12.86;65.90
44144;BME280;71749;51.920;4.492;2024-03-02T13:22:18;67264.06;;;12.68;64.70
44144;BME280;71749;51.920;4.492;2024-03-02T13:25:03;67241.69;;;12.48;64.63
44144;BME280;71749;51.920;4.492;2024-03-02T13:27:50;67247.13;;;12.50;66.77
44144;BME280;71749;51.920;4.492;2024-03-02T13:30:36;67267.63;;;12.66;66.04
44144;BME280;71749;51.920;4.492;2024-03-02T13:33:21;67288.47;;;12.88;66.30
44144;BME280;71749;51.920;4.492;2024-03-02T13:36:10;67280.66;;;12.81;66.35
44144;BME280;71749;51.920;4.492;2024-03-02T13:38:55;67313.81;;;13.13;65.98
44144;BME280;71749;51.920;4.492;2024-03-02T13:41:40;67296.06;;;12.99;66.95
44144;BME280;71749;51.920;4.492;2024-03-02T13:44:25;67300.38;;;13.01;66.69
44144;BME280;71749;51.920;4.492;2024-03-02T13:47:11;67316.22;;;13.18;66.19
44144;BME280;71749;51.920;4.492;2024-03-02T13:49:56;67304.84;;;13.05;67.46
44144;BME280;71749;51.920;4.492;2024-03-02T13:52:41;67312.31;;;13.14;67.71
44144;BME280;71749;51.920;4.492;2024-03-02T13:55:27;67322.59;;;13.19;67.91
44144;BME280;71749;51.920;4.492;2024-03-02T13:58:12;67312.31;;;13.14;66.73
44144;BME280;71749;51.920;4.492;2024-03-02T14:00:57;67298.13;;;12.99;67.05
44144;BME280;71749;51.920;4.492;2024-03-02T14:03:45;67314.38;;;13.14;67.51
44144;BME280;71749;51.920;4.492;2024-03-02T14:06:31;67303.75;;;13.04;66.72
44144;BME280;71749;51.920;4.492;2024-03-02T14:09:17;67307.47;;;13.05;67.26
44144;BME280;71749;51.920;4.492;2024-03-02T14:12:04;67330.38;;;13.33;65.99
44144;BME280;71749;51.920;4.492;2024-03-02T14:14:51;67305.97;;;13.06;67.20
44144;BME280;71749;51.920;4.492;2024-03-02T14:17:40;67329.47;;;13.27;67.42
44144;BME280;71749;51.920;4.492;2024-03-02T14:20:27;67328.34;;;13.26;67.22
44144;BME280;71749;51.920;4.492;2024-03-02T14:23:13;67326.84;;;13.27;67.22
44144;BME280;71749;51.920;4.492;2024-03-02T14:25:58;67328.34;;;13.26;66.89
44144;BME280;71749;51.920;4.492;2024-03-02T14:28:44;67322.34;;;13.23;66.69
44144;BME280;71749;51.920;4.492;2024-03-02T14:31:35;67354.78;;;13.53;66.83
44144;BME280;71749;51.920;4.492;2024-03-02T14:34:21;67338.03;;;13.37;65.74
44144;BME280;71749;51.920;4.492;2024-03-02T14:37:07;67368.22;;;13.65;65.70
44144;BME280;71749;51.920;4.492;2024-03-02T14:39:53;67351.44;;;13.49;65.24
44144;BME280;71749;51.920;4.492;2024-03-02T14:42:38;67359.66;;;13.55;65.53
44144;BME280;71749;51.920;4.492;2024-03-02T14:45:23;67361.50;;;13.59;65.83
44144;BME280;71749;51.920;4.492;2024-03-02T14:48:09;67302.78;;;13.05;64.95
44144;BME280;71749;51.920;4.492;2024-03-02T14:50:55;67345.28;;;13.44;65.47
44144;BME280;71749;51.920;4.492;2024-03-02T14:53:41;67317.50;;;13.21;66.33
44144;BME280;71749;51.920;4.492;2024-03-02T14:56:27;67339.53;;;13.36;66.42
44144;BME280;71749;51.920;4.492;2024-03-02T14:59:13;67360.41;;;13.58;66.18
44144;BME280;71749;51.920;4.492;2024-03-02T15:01:59;67338.03;;;13.37;66.15
44144;BME280;71749;51.920;4.492;2024-03-02T15:04:44;67348.09;;;13.46;66.28
44144;BME280;71749;51.920;4.492;2024-03-02T15:07:30;67350.72;;;13.46;65.96
44144;BME280;71749;51.920;4.492;2024-03-02T15:10:16;67330.44;;;13.26;65.75
44144;BME280;71749;51.920;4.492;2024-03-02T15:13:02;67325.56;;;13.24;66.02
44144;BME280;71749;51.920;4.492;2024-03-02T15:15:48;67331.63;;;13.36;66.28
44144;BME280;71749;51.920;4.492;2024-03-02T15:18:34;67329.81;;;13.32;65.45
44144;BME280;71749;51.920;4.492;2024-03-02T15:21:20;67338.03;;;13.37;65.54
44144;BME280;71749;51.920;4.492;2024-03-02T15:24:07;67348.63;;;13.47;65.90
44144;BME280;71749;51.920;4.492;2024-03-02T15:26:53;67351.84;;;13.47;64.94
44144;BME280;71749;51.920;4.492;2024-03-02T15:29:39;67353.38;;;13.46;65.59
44144;BME280;71749;51.920;4.492;2024-03-02T15:32:24;67378.84;;;13.74;64.95
44144;BME280;71749;51.920;4.492;2024-03-02T15:35:12;67356.72;;;13.49;64.90
44144;BME280;71749;51.920;4.492;2024-03-02T15:37:57;67386.50;;;13.79;64.48
44144;BME280;71749;51.920;4.492;2024-03-02T15:40:42;67370.44;;;13.67;64.77
44144;BME280;71749;51.920;4.492;2024-03-02T15:43:28;67368.78;;;13.65;64.90
44144;BME280;71749;51.920;4.492;2024-03-02T15:46:14;67367.09;;;13.64;65.29
44144;BME280;71749;51.920;4.492;2024-03-02T15:49:00;67307.66;;;13.07;65.15
44144;BME280;71749;51.920;4.492;2024-03-02T15:51:46;67338.75;;;13.40;66.17